createdAt,value
2022-09-30T00:01:26.871Z,100157.53
2022-09-30T00:03:55.502Z,100160.25
2022-09-30T00:06:23.579Z,100171.47
2022-09-30T00:08:51.111Z,100173.47
2022-09-30T00:11:23.302Z,100186.47
2022-09-30T00:13:51.387Z,100177.78
2022-09-30T00:16:21.473Z,100176.22
2022-09-30T00:18:49.363Z,100171.16
2022-09-30T00:21:17.484Z,100170.25
2022-09-30T00:23:45.620Z,100170.84
2022-09-30T00:26:14.740Z,100187.53
2022-09-30T00:28:42.747Z,100179.03
2022-09-30T00:31:15.239Z,100181.47
2022-09-30T00:33:46.636Z,100177.88
2022-09-30T00:36:14.504Z,100193.44
2022-09-30T00:38:42.037Z,100176.81
2022-09-30T00:41:09.508Z,100176.22
2022-09-30T00:43:53.644Z,100176.41
2022-09-30T00:46:27.439Z,100181.66
2022-09-30T00:48:57.474Z,100186.91
2022-09-30T00:51:30.203Z,100180.94
2022-09-30T00:54:00.835Z,100183.47
2022-09-30T00:56:48.589Z,100191.53
2022-09-30T00:59:22.002Z,100194.88
2022-09-30T01:01:49.661Z,100195.19
2022-09-30T01:04:22.748Z,100198.06
2022-09-30T01:06:50.981Z,100206.66
2022-09-30T01:09:19.589Z,100205.50
2022-09-30T01:11:48.386Z,100202.22
2022-09-30T01:14:16.001Z,100199.69
2022-09-30T01:16:46.790Z,100186.72
2022-09-30T01:19:36.383Z,100188.59
2022-09-30T01:22:10.170Z,100195.59
2022-09-30T01:24:58.155Z,100192.47
2022-09-30T01:27:35.231Z,100189.22
2022-09-30T01:30:15.003Z,100188.50
2022-09-30T01:32:52.369Z,100188.72
2022-09-30T01:35:34.780Z,100200.13
2022-09-30T01:38:07.486Z,100197.50
2022-09-30T01:40:44.450Z,100199.63
2022-09-30T01:43:18.599Z,100202.25
2022-09-30T01:45:57.094Z,100206.03
2022-09-30T01:48:35.431Z,100206.13
2022-09-30T01:51:08.218Z,100202.84
2022-09-30T01:53:36.289Z,100207.19
2022-09-30T01:56:11.990Z,100208.09
2022-09-30T01:59:05.897Z,100207.28
2022-09-30T02:01:36.351Z,100200.25
2022-09-30T02:04:07.746Z,100198.25
2022-09-30T02:06:41.941Z,100192.28
2022-09-30T02:09:12.752Z,100197.28
2022-09-30T02:11:41.318Z,100206.22
2022-09-30T02:14:26.523Z,100219.97
2022-09-30T02:17:23.755Z,100206.13
2022-09-30T02:20:00.648Z,100208.53
2022-09-30T02:22:31.693Z,100218.81
2022-09-30T02:25:04.288Z,100226.22
2022-09-30T02:27:42.608Z,100229.16
2022-09-30T02:30:12.208Z,100227.28
2022-09-30T02:32:45.517Z,100232.84
2022-09-30T02:35:17.534Z,100219.91
2022-09-30T02:37:50.611Z,100224.34
2022-09-30T02:40:26.951Z,100223.06
2022-09-30T02:42:55.406Z,100220.47
2022-09-30T02:45:24.412Z,100229.06
2022-09-30T02:48:10.866Z,100229.06
2022-09-30T02:50:44.141Z,100231.88
2022-09-30T02:53:17.613Z,100232.72
2022-09-30T02:55:56.101Z,100229.88
2022-09-30T02:58:26.486Z,100221.19
2022-09-30T03:00:55.324Z,100217.84
2022-09-30T03:03:41.449Z,100220.47
2022-09-30T03:06:10.160Z,100218.75
2022-09-30T03:08:37.680Z,100219.91
2022-09-30T03:11:06.227Z,100224.31
2022-09-30T03:13:40.273Z,100229.75
2022-09-30T03:19:08.074Z,100227.97
2022-09-30T03:21:53.631Z,100222.16
2022-09-30T03:24:40.177Z,100222.72
2022-09-30T03:27:37.045Z,100222.91
2022-09-30T03:30:10.237Z,100225.34
2022-09-30T03:32:40.512Z,100227.22
2022-09-30T03:35:22.082Z,100228.34
2022-09-30T03:38:01.997Z,100227.63
2022-09-30T03:40:42.148Z,100241.56
2022-09-30T03:43:22.028Z,100243.13
2022-09-30T03:46:01.528Z,100238.62
2022-09-30T03:48:30.771Z,100238.62
2022-09-30T03:50:59.582Z,100245.38
2022-09-30T03:53:28.819Z,100242.66
2022-09-30T03:55:56.351Z,100244.56
2022-09-30T03:58:24.278Z,100244.78
2022-09-30T04:00:57.391Z,100240.47
2022-09-30T04:03:28.175Z,100238.72
2022-09-30T04:05:55.892Z,100252.66
2022-09-30T04:08:23.461Z,100252.75
2022-09-30T04:10:51.609Z,100256.12
2022-09-30T04:13:19.120Z,100247.53
2022-09-30T04:15:53.359Z,100259.62
2022-09-30T04:18:21.155Z,100250.19
2022-09-30T04:20:48.613Z,100245.78
2022-09-30T04:23:16.382Z,100247.47
2022-09-30T04:25:44.256Z,100251.13
2022-09-30T04:28:11.784Z,100245.13
2022-09-30T04:30:41.497Z,100251.56
2022-09-30T04:33:09.439Z,100255.94
2022-09-30T04:38:24.863Z,100257.53
2022-09-30T04:40:52.887Z,100255.53
2022-09-30T04:43:20.769Z,100257.53
2022-09-30T04:48:33.661Z,100249.84
2022-09-30T04:51:01.547Z,100245.31
2022-09-30T04:53:29.610Z,100242.09
2022-09-30T04:58:47.070Z,100242.56
2022-09-30T05:01:15.900Z,100237.88
2022-09-30T05:03:44.114Z,100239.97
2022-09-30T05:06:12.204Z,100236.28
2022-09-30T05:08:44.721Z,100232.09
2022-09-30T05:11:15.308Z,100222.94
2022-09-30T05:13:43.070Z,100226.50
2022-09-30T05:16:11.249Z,100232.25
2022-09-30T05:18:41.201Z,100228.56
2022-09-30T05:21:08.737Z,100231.59
2022-09-30T05:23:36.321Z,100221.88
2022-09-30T05:26:07.449Z,100223.84
2022-09-30T05:28:37.535Z,100221.94
2022-09-30T05:31:06.893Z,100237.84
2022-09-30T05:33:35.357Z,100241.38
2022-09-30T05:36:03.998Z,100239.44
2022-09-30T05:38:32.004Z,100241.03
2022-09-30T05:40:59.447Z,100248.50
2022-09-30T05:43:27.115Z,100256.91
2022-09-30T05:45:55.920Z,100259.00
2022-09-30T05:48:23.979Z,100254.91
2022-09-30T05:50:55.514Z,100263.53
2022-09-30T05:53:24.219Z,100262.62
2022-09-30T05:55:52.450Z,100275.50
2022-09-30T05:58:20.839Z,100270.53
2022-09-30T06:00:49.388Z,100267.69
2022-09-30T06:03:18.536Z,100263.59
2022-09-30T06:05:46.316Z,100261.75
2022-09-30T06:08:15.070Z,100262.22
2022-09-30T06:10:44.507Z,100264.50
2022-09-30T06:13:12.031Z,100261.72
2022-09-30T06:15:41.656Z,100259.72
2022-09-30T06:18:10.914Z,100256.09
2022-09-30T06:20:40.274Z,100258.00
2022-09-30T06:23:07.811Z,100262.50
2022-09-30T06:25:35.670Z,100261.44
2022-09-30T06:28:03.128Z,100255.56
2022-09-30T06:30:34.919Z,100257.81
2022-09-30T06:33:03.361Z,100249.97
2022-09-30T06:35:30.992Z,100263.56
2022-09-30T06:37:58.510Z,100262.50
2022-09-30T06:40:26.455Z,100265.34
2022-09-30T06:42:58.851Z,100259.72
2022-09-30T06:45:32.666Z,100261.03
2022-09-30T06:48:01.628Z,100255.41
2022-09-30T06:50:33.403Z,100247.75
2022-09-30T06:53:01.589Z,100253.13
2022-09-30T06:55:30.217Z,100248.28
2022-09-30T06:57:58.001Z,100244.06
2022-09-30T07:00:27.531Z,100247.78
2022-09-30T07:02:57.020Z,100247.78
2022-09-30T07:05:26.023Z,100250.56
2022-09-30T07:07:53.958Z,100255.13
2022-09-30T07:10:22.219Z,100256.16
2022-09-30T07:12:51.333Z,100260.09
2022-09-30T07:15:23.623Z,100251.03
2022-09-30T07:17:52.496Z,100247.00
2022-09-30T07:20:20.048Z,100248.50
2022-09-30T07:22:47.956Z,100252.88
2022-09-30T07:25:18.973Z,100243.22
2022-09-30T07:27:47.054Z,100247.13
2022-09-30T07:30:24.007Z,100235.12
2022-09-30T07:32:54.849Z,100233.44
2022-09-30T07:35:22.388Z,100235.06
2022-09-30T07:37:50.696Z,100239.69
2022-09-30T07:40:18.605Z,100235.62
2022-09-30T07:42:46.311Z,100232.53
2022-09-30T07:45:19.657Z,100233.13
2022-09-30T07:47:51.151Z,100234.59
2022-09-30T07:50:21.481Z,100233.87
2022-09-30T07:52:49.348Z,100234.78
2022-09-30T07:55:16.860Z,100232.78
2022-09-30T07:57:44.310Z,100237.53
2022-09-30T08:00:37.908Z,100238.72
2022-09-30T08:03:00.467Z,100240.41
2022-09-30T08:05:28.030Z,100235.19
2022-09-30T08:07:55.586Z,100234.13
2022-09-30T08:10:23.878Z,100233.41
2022-09-30T08:12:54.396Z,100241.13
2022-09-30T08:15:24.082Z,100235.91
2022-09-30T08:17:51.544Z,100239.03
2022-09-30T08:20:22.453Z,100232.09
2022-09-30T08:22:54.713Z,100237.53
2022-09-30T08:25:47.562Z,100237.31
2022-09-30T08:28:15.999Z,100237.13
2022-09-30T08:30:43.607Z,100235.28
2022-09-30T08:33:11.085Z,100236.38
2022-09-30T08:35:38.930Z,100234.88
2022-09-30T08:38:06.905Z,100233.31
2022-09-30T08:40:39.197Z,100240.47
2022-09-30T08:43:16.321Z,100236.38
2022-09-30T08:45:54.002Z,100240.56
2022-09-30T08:48:41.065Z,100245.75
2022-09-30T08:51:25.555Z,100233.50
2022-09-30T08:53:57.769Z,100241.06
2022-09-30T08:56:27.799Z,100236.38
2022-09-30T08:59:15.354Z,100234.81
2022-09-30T09:01:48.492Z,100235.12
2022-09-30T09:04:17.431Z,100237.72
2022-09-30T09:07:03.468Z,100234.19
2022-09-30T09:09:58.002Z,100239.44
2022-09-30T09:12:30.551Z,100239.25
2022-09-30T09:14:58.427Z,100242.03
2022-09-30T09:17:25.897Z,100233.50
2022-09-30T09:19:59.353Z,100234.91
2022-09-30T09:22:28.607Z,100239.22
2022-09-30T09:24:56.814Z,100242.91
2022-09-30T09:27:33.739Z,100233.41
2022-09-30T09:30:16.097Z,100242.38
2022-09-30T09:32:50.059Z,100234.94
2022-09-30T09:35:37.773Z,100241.44
2022-09-30T09:38:26.714Z,100229.53
2022-09-30T09:41:10.085Z,100227.97
2022-09-30T09:44:03.937Z,100225.19
2022-09-30T09:46:42.208Z,100222.06
2022-09-30T09:52:24.047Z,100219.09
2022-09-30T09:54:58.033Z,100216.41
2022-09-30T09:57:35.474Z,100218.47
2022-09-30T10:00:24.647Z,100217.31
2022-09-30T10:03:04.366Z,100218.06
2022-09-30T10:05:44.412Z,100211.06
2022-09-30T10:08:19.629Z,100221.47
2022-09-30T10:10:51.727Z,100206.13
2022-09-30T10:13:21.740Z,100223.78
2022-09-30T10:15:51.204Z,100222.88
2022-09-30T10:18:36.502Z,100236.66
2022-09-30T10:21:10.313Z,100233.56
2022-09-30T10:23:39.490Z,100232.28
2022-09-30T10:26:18.312Z,100229.91
2022-09-30T10:28:48.119Z,100222.44
2022-09-30T10:31:27.246Z,100222.22
2022-09-30T10:33:58.310Z,100228.25
2022-09-30T10:36:31.448Z,100230.13
2022-09-30T10:39:09.390Z,100232.38
2022-09-30T10:41:38.304Z,100227.59
2022-09-30T10:44:13.574Z,100232.31
2022-09-30T10:46:42.235Z,100225.66
2022-09-30T10:49:12.318Z,100229.97
2022-09-30T10:51:46.346Z,100228.81
2022-09-30T10:54:34.139Z,100225.66
2022-09-30T10:57:05.528Z,100229.53
2022-09-30T10:59:38.744Z,100225.78
2022-09-30T11:02:18.278Z,100223.87
2022-09-30T11:04:53.538Z,100227.03
2022-09-30T11:07:33.965Z,100227.66
2022-09-30T11:10:07.039Z,100238.75
2022-09-30T11:13:00.252Z,100226.47
2022-09-30T11:15:33.705Z,100223.69
2022-09-30T11:18:13.292Z,100236.97
2022-09-30T11:20:47.586Z,100232.66
2022-09-30T11:23:44.281Z,100225.66
2022-09-30T11:26:38.387Z,100232.91
2022-09-30T11:29:08.406Z,100229.28
2022-09-30T11:31:39.093Z,100236.91
2022-09-30T11:34:12.379Z,100234.00
2022-09-30T11:36:50.984Z,100235.31
2022-09-30T11:39:18.468Z,100235.31
2022-09-30T11:41:53.965Z,100230.16
2022-09-30T11:44:35.682Z,100227.00
2022-09-30T11:47:03.658Z,100228.31
2022-09-30T11:49:49.660Z,100234.59
2022-09-30T11:52:40.245Z,100226.47
2022-09-30T11:55:26.459Z,100232.12
2022-09-30T11:58:12.032Z,100228.62
2022-09-30T12:00:51.792Z,100229.66
2022-09-30T12:03:23.257Z,100226.63
2022-09-30T12:05:56.059Z,100230.66
2022-09-30T12:11:36.570Z,100231.97
2022-09-30T12:14:07.786Z,100231.81
2022-09-30T12:16:35.851Z,100234.31
2022-09-30T12:19:21.771Z,100233.28
2022-09-30T12:22:12.401Z,100230.25
2022-09-30T12:24:45.818Z,100233.94
2022-09-30T12:27:50.424Z,100229.12
2022-09-30T12:30:21.322Z,100235.66
2022-09-30T12:32:49.060Z,100235.62
2022-09-30T12:35:34.912Z,100244.59
2022-09-30T12:38:05.585Z,100239.97
2022-09-30T12:40:41.199Z,100250.41
2022-09-30T12:43:14.859Z,100251.75
2022-09-30T12:45:42.513Z,100251.72
2022-09-30T12:48:17.176Z,100253.13
2022-09-30T12:50:50.152Z,100256.56
2022-09-30T12:53:19.954Z,100252.19
2022-09-30T12:55:48.137Z,100247.22
2022-09-30T12:58:21.473Z,100248.38
2022-09-30T13:01:03.591Z,100249.34
2022-09-30T13:03:43.724Z,100260.81
2022-09-30T13:06:11.728Z,100256.66
2022-09-30T13:08:47.878Z,100250.53
2022-09-30T13:11:31.687Z,100257.75
2022-09-30T13:14:03.551Z,100242.47
2022-09-30T13:16:52.713Z,100231.69
2022-09-30T13:19:21.703Z,100228.53
2022-09-30T13:21:52.193Z,100238.13
2022-09-30T13:24:19.825Z,100240.16
2022-09-30T13:26:49.251Z,100250.28
2022-09-30T13:29:17.137Z,100253.75
2022-09-30T13:31:51.029Z,100258.63
2022-09-30T13:34:23.384Z,100262.94
2022-09-30T13:36:50.886Z,100253.13
2022-09-30T13:39:28.018Z,100250.19
2022-09-30T13:42:05.312Z,100253.44
2022-09-30T13:44:38.549Z,100256.50
2022-09-30T13:47:18.657Z,100257.41
2022-09-30T13:50:03.181Z,100256.53
2022-09-30T13:52:35.871Z,100259.44
2022-09-30T13:55:23.996Z,100256.88
2022-09-30T13:58:02.511Z,100268.81
2022-09-30T14:00:51.427Z,100262.19
2022-09-30T14:03:38.982Z,100282.34
2022-09-30T14:06:09.811Z,100274.25
2022-09-30T14:08:43.931Z,100277.03
2022-09-30T14:11:30.258Z,100277.87
2022-09-30T14:13:58.252Z,100285.94
2022-09-30T14:16:25.854Z,100281.13
2022-09-30T14:19:05.135Z,100286.38
2022-09-30T14:21:50.801Z,100287.75
2022-09-30T14:24:24.363Z,100295.06
2022-09-30T14:27:04.284Z,100289.59
2022-09-30T14:29:51.500Z,100300.84
2022-09-30T14:32:41.307Z,100305.47
2022-09-30T14:35:09.580Z,100299.13
2022-09-30T14:37:46.116Z,100298.16
2022-09-30T14:40:18.092Z,100306.16
2022-09-30T14:42:48.316Z,100308.31
2022-09-30T14:45:19.364Z,100308.22
2022-09-30T14:47:49.390Z,100318.66
2022-09-30T14:50:19.889Z,100317.31
2022-09-30T14:52:49.518Z,100315.19
2022-09-30T14:55:23.760Z,100314.87
2022-09-30T14:57:52.335Z,100316.47
2022-09-30T15:00:30.353Z,100317.19
2022-09-30T15:02:59.490Z,100321.13
2022-09-30T15:05:28.351Z,100320.31
2022-09-30T15:07:56.082Z,100317.78
2022-09-30T15:10:24.870Z,100325.25
2022-09-30T15:12:53.467Z,100328.50
2022-09-30T15:15:25.525Z,100324.31
2022-09-30T15:17:55.778Z,100333.81
2022-09-30T15:20:30.525Z,100337.50
2022-09-30T15:23:01.389Z,100330.69
2022-09-30T15:25:29.922Z,100340.44
2022-09-30T15:27:57.998Z,100329.13
2022-09-30T15:30:29.372Z,100331.03
2022-09-30T15:33:01.479Z,100331.28
2022-09-30T15:35:29.836Z,100324.56
2022-09-30T15:38:07.812Z,100329.31
2022-09-30T15:40:50.332Z,100329.44
2022-09-30T15:43:32.826Z,100323.22
2022-09-30T15:46:17.948Z,100318.75
2022-09-30T15:48:46.213Z,100318.47
2022-09-30T15:51:31.247Z,100318.22
2022-09-30T15:54:00.781Z,100329.88
2022-09-30T15:56:35.431Z,100322.63
2022-09-30T15:59:04.967Z,100326.78
2022-09-30T16:01:44.271Z,100328.53
2022-09-30T16:04:24.707Z,100329.97
2022-09-30T16:06:52.324Z,100336.22
2022-09-30T16:09:22.539Z,100334.00
2022-09-30T16:12:05.589Z,100334.38
2022-09-30T16:14:35.787Z,100336.53
2022-09-30T16:17:05.574Z,100346.97
2022-09-30T16:19:33.591Z,100341.13
2022-09-30T16:22:01.544Z,100340.38
2022-09-30T16:24:29.293Z,100338.56
2022-09-30T16:26:58.264Z,100339.75
2022-09-30T16:29:26.711Z,100343.56
2022-09-30T16:31:55.875Z,100343.94
2022-09-30T16:34:23.892Z,100349.94
2022-09-30T16:36:53.277Z,100350.38
2022-09-30T16:39:21.459Z,100353.38
2022-09-30T16:41:54.424Z,100350.72
2022-09-30T16:44:23.736Z,100359.22
2022-09-30T16:46:52.033Z,100352.97
2022-09-30T16:49:20.086Z,100356.16
2022-09-30T16:51:47.685Z,100357.72
2022-09-30T16:54:15.818Z,100360.13
2022-09-30T16:56:45.007Z,100361.16
2022-09-30T16:59:16.863Z,100357.38
2022-09-30T17:01:44.972Z,100359.84
2022-09-30T17:04:15.263Z,100363.47
2022-09-30T17:06:45.238Z,100365.13
2022-09-30T17:09:12.835Z,100368.06
2022-09-30T17:11:40.528Z,100371.78
2022-09-30T17:14:08.488Z,100368.87
2022-09-30T17:16:36.824Z,100367.97
2022-09-30T17:19:04.983Z,100370.56
2022-09-30T17:21:32.976Z,100371.94
2022-09-30T17:24:04.933Z,100372.25
2022-09-30T17:26:33.355Z,100361.66
2022-09-30T17:31:49.373Z,100367.84
2022-09-30T17:34:17.046Z,100365.53
2022-09-30T17:36:44.556Z,100363.84
2022-09-30T17:39:12.461Z,100360.69
2022-09-30T17:41:58.547Z,100364.19
2022-09-30T17:44:26.532Z,100359.37
2022-09-30T17:47:00.582Z,100353.91
2022-09-30T17:49:33.219Z,100357.50
2022-09-30T17:52:00.929Z,100348.16
2022-09-30T17:54:31.564Z,100350.78
2022-09-30T17:56:59.415Z,100352.97
2022-09-30T17:59:28.592Z,100350.22
2022-09-30T18:01:59.876Z,100349.16
2022-09-30T18:04:29.377Z,100351.09
2022-09-30T18:06:57.392Z,100363.38
2022-09-30T18:09:25.182Z,100355.81
2022-09-30T18:11:53.638Z,100357.50
2022-09-30T18:14:21.293Z,100350.03
2022-09-30T18:16:48.977Z,100355.22
2022-09-30T18:19:16.917Z,100358.78
2022-09-30T18:21:44.500Z,100358.75
2022-09-30T18:24:12.113Z,100361.03
2022-09-30T18:26:40.334Z,100353.62
2022-09-30T18:29:08.332Z,100362.00
2022-09-30T18:31:37.740Z,100369.31
2022-09-30T18:34:06.837Z,100366.50
2022-09-30T18:36:34.511Z,100365.53
2022-09-30T18:39:03.317Z,100357.50
2022-09-30T18:41:35.319Z,100357.91
2022-09-30T18:44:03.418Z,100368.59
2022-09-30T18:46:31.965Z,100369.28
2022-09-30T18:49:01.038Z,100368.59
2022-09-30T18:51:29.922Z,100364.56
2022-09-30T18:53:59.577Z,100365.25
2022-09-30T18:56:32.437Z,100365.47
2022-09-30T18:59:04.890Z,100366.81
2022-09-30T19:01:34.363Z,100364.69
2022-09-30T19:04:03.343Z,100368.53
2022-09-30T19:09:17.176Z,100375.66
2022-09-30T19:11:46.532Z,100358.41
2022-09-30T19:14:14.800Z,100369.28
2022-09-30T19:16:46.292Z,100360.00
2022-09-30T19:19:13.868Z,100371.66
2022-09-30T19:21:41.806Z,100367.72
2022-09-30T19:24:09.659Z,100365.13
2022-09-30T19:26:37.937Z,100365.72
2022-09-30T19:29:08.036Z,100362.13
2022-09-30T19:31:37.312Z,100363.13
2022-09-30T19:34:05.610Z,100363.44
2022-09-30T19:36:45.335Z,100366.56
2022-09-30T19:39:16.927Z,100374.28
2022-09-30T19:41:46.549Z,100363.88
2022-09-30T19:44:19.131Z,100369.75
2022-09-30T19:46:50.796Z,100370.91
2022-09-30T19:49:23.768Z,100370.09
2022-09-30T19:51:53.212Z,100373.09
2022-09-30T19:54:37.767Z,100378.16
2022-09-30T19:57:09.405Z,100379.09
2022-09-30T19:59:36.998Z,100389.41
2022-09-30T20:02:04.646Z,100386.41
2022-09-30T20:04:34.499Z,100387.94
2022-09-30T20:07:02.351Z,100392.72
2022-09-30T20:09:30.936Z,100388.66
2022-09-30T20:11:58.920Z,100383.88
2022-09-30T20:14:47.276Z,100393.72
2022-09-30T20:17:15.222Z,100393.25
2022-09-30T20:19:42.731Z,100395.41
2022-09-30T20:22:10.354Z,100393.97
2022-09-30T20:24:39.226Z,100391.94
2022-09-30T20:27:06.801Z,100401.66
2022-09-30T20:29:34.313Z,100392.53
2022-09-30T20:32:02.568Z,100395.16
2022-09-30T20:34:30.280Z,100393.13
2022-09-30T20:36:57.849Z,100389.16
2022-09-30T20:39:44.937Z,100399.69
2022-09-30T20:42:49.178Z,100396.94
2022-09-30T20:45:32.513Z,100394.91
2022-09-30T20:48:12.355Z,100395.63
2022-09-30T20:50:59.100Z,100398.97
2022-09-30T20:56:21.803Z,100401.62
2022-09-30T20:58:49.885Z,100402.06
2022-09-30T21:01:20.839Z,100402.69
2022-09-30T21:03:52.660Z,100401.00
2022-09-30T21:06:21.936Z,100407.94
2022-09-30T21:08:51.186Z,100400.16
2022-09-30T21:11:19.512Z,100400.16
2022-09-30T21:13:50.817Z,100399.31
2022-09-30T21:16:20.819Z,100398.59
2022-09-30T21:18:50.412Z,100398.72
2022-09-30T21:21:18.865Z,100398.72
2022-09-30T21:23:46.721Z,100401.34
2022-09-30T21:26:15.372Z,100403.16
2022-09-30T21:28:48.214Z,100405.81
2022-09-30T21:31:18.974Z,100405.44
2022-09-30T21:33:50.399Z,100400.41
2022-09-30T21:36:18.740Z,100397.06
2022-09-30T21:38:46.179Z,100388.44
2022-09-30T21:41:13.734Z,100389.75
2022-09-30T21:43:41.677Z,100390.00
2022-09-30T21:46:10.077Z,100389.16
2022-09-30T21:48:38.029Z,100389.16
2022-09-30T21:51:06.536Z,100390.00
2022-09-30T21:53:34.437Z,100396.13
2022-09-30T21:56:02.604Z,100392.28
2022-09-30T21:58:31.913Z,100399.22
2022-09-30T22:01:00.601Z,100390.25
2022-09-30T22:03:29.559Z,100392.87
2022-09-30T22:05:58.079Z,100390.09
2022-09-30T22:08:26.755Z,100390.81
2022-09-30T22:10:54.655Z,100390.69
2022-09-30T22:13:22.219Z,100400.41
2022-09-30T22:15:49.790Z,100390.69
2022-09-30T22:18:18.917Z,100392.13
2022-09-30T22:20:47.377Z,100380.75
2022-09-30T22:23:15.327Z,100377.28
2022-09-30T22:25:43.176Z,100383.50
2022-09-30T22:28:10.721Z,100380.25
2022-09-30T22:30:38.339Z,100387.94
2022-09-30T22:33:24.637Z,100377.41
2022-09-30T22:36:13.068Z,100372.13
2022-09-30T22:38:40.952Z,100377.78
2022-09-30T22:41:08.390Z,100378.12
2022-09-30T22:43:38.904Z,100373.09
2022-09-30T22:46:08.442Z,100362.06
2022-09-30T22:48:37.281Z,100369.97
2022-09-30T22:51:05.362Z,100365.78
2022-09-30T22:53:34.178Z,100369.75
2022-09-30T22:56:04.065Z,100363.88
2022-09-30T22:58:31.530Z,100375.03
2022-09-30T23:00:59.380Z,100369.75
2022-09-30T23:03:26.936Z,100372.13
2022-09-30T23:06:00.473Z,100371.41
2022-09-30T23:08:33.605Z,100381.97
2022-09-30T23:11:01.067Z,100379.34
2022-09-30T23:13:30.513Z,100371.78
2022-09-30T23:15:58.554Z,100375.03
2022-09-30T23:18:26.647Z,100370.09
2022-09-30T23:20:58.397Z,100367.56
2022-09-30T23:23:26.127Z,100362.66
2022-09-30T23:26:08.511Z,100367.06
2022-09-30T23:28:36.091Z,100371.19
2022-09-30T23:31:06.713Z,100374.91
2022-09-30T23:33:35.058Z,100373.81
2022-09-30T23:36:03.343Z,100380.78
2022-09-30T23:38:31.369Z,100386.78
2022-09-30T23:41:01.615Z,100377.56
2022-09-30T23:43:31.396Z,100380.78
2022-09-30T23:45:59.214Z,100388.09
2022-09-30T23:48:27.071Z,100398.28
2022-09-30T23:50:54.802Z,100396.09
2022-09-30T23:53:23.278Z,100391.03
2022-09-30T23:55:54.837Z,100386.34
2022-09-30T23:58:23.649Z,100382.75
